Главная страница
METAR-TAF:

METAR-TAF

Аэропорты :

Нассау, Багамы

широта: 25-03N, долгота: 077-28W, высота над уровнем моря: 3 м

Текущие метеонаблюдения

Эта сводка был подготовлена 50 минут назад, в 07:00 UTC
Температура 11°C
Влажность 82%
Давление 1018 hPa
Видимость 10 км и более
Нет облачности ниже 1500 м, и нет кучево-дождевой облачности

METAR: MYNN 140700Z 00000 CAVOK 11/08 A3005

Время: 02:50 (07:50 UTC)

Прогноз

Эта сводка был подготовлена 2 часа и 50 минут назад, в 05:00 UTC
Прогноз действительный с 14-го 06 UTC до 15-го 06 UTC
Ветер Узел от северный
Видимость 10 км и более
Нет облачности ниже 1500 м, и нет кучево-дождевой облачности
изменения
С 14-го 12 UTC до 14-го 14 UTC
Ветер 3 Узел переменных направлений
Видимость 10 км и более
небольшая облачность на высоте 2500 фута

TAF: MYNN 140500Z 1406/1506 00000KT CAVOK BECMG 1412/1414 VRB03KT 9999 FEW025

Метеонаблюдения и прогнозы для более 4000 аэропортов (сводки METAR и TAF).

Имеющиеся станции представлены на карте желтыми и красными точками.

Чтобы увидеть название станции, наведите на нее мышь.

Затем щелкните, чтобы увидеть метеонаблюдения и метеопрогнозы.

Управление картой: чтобы увеличить масштаб, щелкните зеленые кнопки с черным крестиком; чтобы уменьшить масштаб, щелкните зеленую кнопку с тире; для просмотра соседних карт щелкайте зеленые стрелки.


METAR-TAF: